Weather at Unst Airport

Public forecast

Using degrees Celsius for public forecast. Weather courtesy of forecast.io.

Closest aviation weather report (METAR) to Unst Airport

Closest report is Sumburgh Airport, 53.8 nm (99.6 km) SSW.

2024/05/21 16:20 (retrieved 36 minutes ago)

EGPB 211620Z 14010KT 9999 FEW010 15/11 Q1015

Closest aviation forecast (TAF) to Unst Airport

Closest forecast is Gullfaks C Helipad, 95.2 nm (176.4 km) ENE.

2024/05/21 15:36 (retrieved 1 hour ago)

TAF TAF ENGC 211400Z 2115/2215 16015KT CAVOK BECMG 2117/2120 10010KT PROB40 TEMPO 2121/2203 SHRA BKN040CB BECMG 2206/2208 16015KT BECMG 2212/2215 06015KT